Time;durP1;ratioP1;P1;durP2;ratioP2;P2;SDS_P1;SDS_P2;PMS_P1;PMS_P2;Temp;Humidity;BMP_temperature;BMP_pressure;BME280_temperature;BME280_humidity;BME280_pressure;Samples;Min_cycle;Max_cycle;Signal;HPM_P1;HPM_P2
2022/08/02 00:01:36;;;;;;;3.55;2.00;;;25.30;67.90;;;;;;5033224;28;20495;-76
2022/08/02 00:04:41;;;;;;;5.05;2.05;;;25.30;67.90;;;;;;5033033;28;20388;-76
2022/08/02 00:07:45;;;;;;;4.72;1.95;;;25.30;68.10;;;;;;5033799;28;20045;-76
2022/08/02 00:10:49;;;;;;;4.45;1.95;;;25.20;68.80;;;;;;5033080;28;20048;-76
2022/08/02 00:17:17;;;;;;;4.78;2.30;;;25.00;69.70;;;;;;5033189;28;20037;-76
2022/08/02 00:20:22;;;;;;;4.75;2.13;;;25.00;69.40;;;;;;5033220;28;20044;-76
2022/08/02 00:23:26;;;;;;;1.85;1.63;;;24.90;69.80;;;;;;5032680;28;20045;-76
2022/08/02 00:26:29;;;;;;;2.95;2.08;;;24.90;70.30;;;;;;5033383;28;20084;-76
2022/08/02 00:29:54;;;;;;;4.00;2.10;;;24.80;69.90;;;;;;5020881;28;20033;-75
2022/08/02 00:33:16;;;;;;;;;;;24.80;70.20;;;;;;5033395;28;20052;-75
2022/08/02 00:36:19;;;;;;;9.32;2.60;;;24.80;70.50;;;;;;5032683;28;19909;-75
2022/08/02 00:39:24;;;;;;;4.43;2.10;;;24.70;70.60;;;;;;5032925;28;20060;-76
2022/08/02 00:42:46;;;;;;;4.65;2.25;;;24.60;70.60;;;;;;5031679;28;20053;-76
2022/08/02 00:45:50;;;;;;;2.95;2.28;;;24.50;70.80;;;;;;5032815;28;20040;-76
2022/08/02 00:48:54;;;;;;;3.10;2.30;;;24.50;71.50;;;;;;5032633;28;20113;-76
2022/08/02 00:52:17;;;;;;;4.53;2.30;;;24.50;71.30;;;;;;5032848;28;20416;-75
2022/08/02 00:55:20;;;;;;;3.30;2.10;;;24.50;71.30;;;;;;5031950;28;20519;-75
2022/08/02 00:58:43;;;;;;;4.30;2.13;;;24.40;71.60;;;;;;5032858;28;20048;-75
2022/08/02 01:01:48;;;;;;;3.10;1.90;;;24.40;71.80;;;;;;5032577;28;20388;-76
2022/08/02 01:04:52;;;;;;;5.15;2.17;;;24.30;71.50;;;;;;5032172;28;20068;-76
2022/08/02 01:08:34;;;;;;;5.18;2.25;;;24.30;71.70;;;;;;5032704;28;20044;-76
2022/08/02 01:11:38;;;;;;;3.47;2.20;;;24.20;72.00;;;;;;5032604;28;20060;-75
2022/08/02 01:14:45;;;;;;;7.53;2.10;;;24.20;72.10;;;;;;5031703;28;20048;-75
2022/08/02 01:18:13;;;;;;;3.20;2.00;;;24.10;72.10;;;;;;5032470;28;20045;-75
2022/08/02 01:21:32;;;;;;;2.33;2.10;;;24.20;72.30;;;;;;5032319;28;20041;-75
2022/08/02 01:24:55;;;;;;;4.55;1.90;;;24.20;72.00;;;;;;5031330;28;20036;-75
2022/08/02 01:28:40;;;;;;;3.85;1.90;;;24.40;71.90;;;;;;5032219;28;20384;-75
2022/08/02 01:32:13;;;;;;;4.47;1.80;;;24.40;71.50;;;;;;5031825;28;20048;-75
2022/08/02 01:35:33;;;;;;;2.38;1.60;;;24.40;71.40;;;;;;5031694;28;20037;-75
2022/08/02 01:38:45;;;;;;;2.55;1.67;;;24.50;71.20;;;;;;5031999;28;20184;-75
2022/08/02 01:42:09;;;;;;;3.00;1.83;;;24.60;71.00;;;;;;5031828;28;20600;-75
2022/08/02 01:45:34;;;;;;;3.80;1.90;;;24.60;71.20;;;;;;5031356;28;20041;-76
2022/08/02 01:48:40;;;;;;;2.45;1.90;;;24.60;71.10;;;;;;5031462;28;20048;-76
2022/08/02 01:55:51;;;;;;;2.72;1.70;;;24.60;71.80;;;;;;5030669;28;20044;-76
2022/08/02 01:58:55;;;;;;;4.15;2.42;;;24.60;71.10;;;;;;5031313;28;20049;-76
2022/08/02 02:02:19;;;;;;;2.78;2.00;;;24.60;71.40;;;;;;5031368;28;20398;-76
2022/08/02 02:12:51;;;;;;;2.17;1.80;;;23.90;73.10;;;;;;5031222;28;20060;-76
2022/08/02 02:16:16;;;;;;;3.30;2.22;;;23.80;73.20;;;;;;5031195;28;20052;-76
2022/08/02 02:19:40;;;;;;;2.78;2.28;;;23.60;74.00;;;;;;5031582;28;20048;-75
2022/08/02 02:23:02;;;;;;;3.85;2.20;;;23.50;74.50;;;;;;5030832;28;20107;-76
2022/08/02 02:26:28;;;;;;;6.95;2.08;;;23.40;74.80;;;;;;5031014;28;20511;-75
2022/08/02 02:30:11;;;;;;;6.53;2.63;;;23.30;75.20;;;;;;5030797;28;20515;-76
2022/08/02 02:33:17;;;;;;;2.30;2.10;;;23.10;75.70;;;;;;5030754;28;20040;-75
2022/08/02 02:36:22;;;;;;;3.17;2.35;;;23.00;76.00;;;;;;5030803;28;20052;-75
2022/08/02 02:39:46;;;;;;;3.47;2.13;;;22.90;76.50;;;;;;5030762;28;20381;-75
2022/08/02 02:42:50;;;;;;;3.05;2.10;;;22.70;76.90;;;;;;5030800;28;20518;-75
2022/08/02 02:45:55;;;;;;;3.42;2.30;;;22.60;77.40;;;;;;5030721;28;20121;-75
2022/08/02 02:49:00;;;;;;;3.85;2.70;;;22.60;77.80;;;;;;5031017;28;20060;-75
2022/08/02 02:52:24;;;;;;;5.07;2.25;;;22.50;78.40;;;;;;5030375;28;20040;-75
2022/08/02 02:55:47;;;;;;;3.35;2.58;;;22.50;78.50;;;;;;5030167;28;20048;-75
2022/08/02 02:59:12;;;;;;;5.85;2.70;;;22.40;78.60;;;;;;5030715;28;20048;-75
2022/08/02 03:05:39;;;;;;;5.13;2.55;;;22.50;78.90;;;;;;5029588;28;20036;-75
2022/08/02 03:08:44;;;;;;;3.35;2.58;;;22.60;79.00;;;;;;5030439;28;20368;-75
2022/08/02 03:11:49;;;;;;;5.20;2.47;;;22.60;79.00;;;;;;5030275;28;20049;-75
2022/08/02 03:14:54;;;;;;;3.78;2.50;;;22.60;79.00;;;;;;5029647;28;20065;-75
2022/08/02 03:17:57;;;;;;;4.78;2.45;;;22.60;79.20;;;;;;5030327;28;20044;-75
2022/08/02 03:21:21;;;;;;;7.78;2.78;;;22.50;79.40;;;;;;5030083;28;20400;-75
2022/08/02 03:24:25;;;;;;;3.95;2.50;;;22.50;79.80;;;;;;5029959;28;20040;-76
2022/08/02 03:27:29;;;;;;;5.20;2.28;;;22.40;79.80;;;;;;5030346;28;20048;-76
2022/08/02 03:30:33;;;;;;;4.47;2.83;;;22.40;80.10;;;;;;5030000;28;20125;-75
2022/08/02 03:33:58;;;;;;;4.57;2.40;;;22.30;80.50;;;;;;5030044;28;20048;-75
2022/08/02 03:37:22;;;;;;;5.00;2.60;;;22.10;81.10;;;;;;5030592;28;20049;-75
2022/08/02 03:40:45;;;;;;;7.75;3.45;;;22.00;81.50;;;;;;5030229;28;20072;-76
2022/08/02 03:43:50;;;;;;;3.72;2.90;;;22.00;81.90;;;;;;5029637;28;20049;-75
2022/08/02 03:46:55;;;;;;;5.03;2.55;;;21.80;82.50;;;;;;5029980;28;20041;-75
2022/08/02 03:50:00;;;;;;;4.35;2.60;;;21.80;83.10;;;;;;5029514;28;20045;-75
2022/08/02 03:53:06;;;;;;;7.13;2.75;;;21.60;83.70;;;;;;5029684;28;20053;-75
2022/08/02 03:56:29;;;;;;;4.32;2.67;;;21.50;84.40;;;;;;5017428;28;20680;-75
2022/08/02 04:00:01;;;;;;;4.10;2.70;;;21.40;85.10;;;;;;5030357;28;20044;-75
2022/08/02 04:03:05;;;;;;;5.85;2.60;;;21.30;85.70;;;;;;5029924;28;20048;-76
2022/08/02 04:06:29;;;;;;;7.88;3.08;;;21.30;86.50;;;;;;5029735;28;20064;-75
2022/08/02 04:09:34;;;;;;;4.95;2.88;;;21.20;87.10;;;;;;5028752;28;20404;-75
2022/08/02 04:12:38;;;;;;;9.18;3.67;;;21.20;87.70;;;;;;5029727;28;20033;-75
2022/08/02 04:16:17;;;;;;;7.05;3.53;;;21.20;87.70;;;;;;5031397;28;20035;-75
2022/08/02 04:19:28;;;;;;;6.88;3.38;;;21.30;87.40;;;;;;5033264;28;20258;-75
2022/08/02 04:22:46;;;;;;;11.80;3.80;;;21.40;87.20;;;;;;5033443;28;20518;-75
2022/08/02 04:25:51;;;;;;;7.78;2.83;;;21.50;86.90;;;;;;5033539;28;20045;-75
2022/08/02 04:28:56;;;;;;;20.60;3.75;;;21.50;86.70;;;;;;5033250;28;20385;-75
2022/08/02 04:35:23;;;;;;;5.70;2.70;;;21.70;86.40;;;;;;5032371;28;20048;-75
2022/08/02 04:39:24;;;;;;;6.88;2.88;;;21.70;86.20;;;;;;5032838;28;20404;-75
2022/08/02 04:42:28;;;;;;;4.82;3.03;;;21.80;86.20;;;;;;5033087;28;20044;-75
2022/08/02 04:45:34;;;;;;;4.20;2.60;;;22.00;86.20;;;;;;5032188;28;20044;-75
2022/08/02 04:48:37;;;;;;;7.50;2.95;;;22.00;85.70;;;;;;5020332;28;20052;-75
2022/08/02 04:51:42;;;;;;;6.80;2.70;;;22.00;86.20;;;;;;5032653;28;20053;-75
2022/08/02 04:55:04;;;;;;;4.28;2.55;;;22.00;86.00;;;;;;5031430;28;20384;-74
2022/08/02 04:58:27;;;;;;;5.20;2.60;;;22.00;86.00;;;;;;5032721;28;20499;-75
2022/08/02 05:01:31;;;;;;;3.45;2.60;;;22.40;85.80;;;;;;5032313;28;20044;-75
2022/08/02 05:04:53;;;;;;;5.07;3.03;;;24.70;81.60;;;;;;5032314;28;20048;-75
2022/08/02 05:07:57;;;;;;;4.63;2.28;;;27.00;77.00;;;;;;5033140;28;20052;-75
2022/08/02 05:11:01;;;;;;;13.35;2.95;;;28.90;73.10;;;;;;5032779;28;20064;-76
2022/08/02 05:14:05;;;;;;;10.57;2.97;;;30.30;70.70;;;;;;5031188;28;20044;-76
2022/08/02 05:17:28;;;;;;;6.75;2.80;;;31.10;69.50;;;;;;5033229;28;20044;-76
2022/08/02 05:20:32;;;;;;;3.15;2.60;;;29.80;68.70;;;;;;5033013;28;20137;-76
2022/08/02 05:23:36;;;;;;;12.43;2.55;;;26.80;73.10;;;;;;5032438;28;20056;-76
2022/08/02 05:26:59;;;;;;;8.75;2.50;;;28.60;73.50;;;;;;5032616;28;20040;-76
2022/08/02 05:30:04;;;;;;;5.05;2.75;;;30.50;70.70;;;;;;5032872;28;20048;-75
2022/08/02 05:33:08;;;;;;;4.10;2.33;;;31.50;68.70;;;;;;5033007;28;20039;-76
2022/08/02 05:39:54;;;;;;;7.95;2.22;;;30.60;67.50;;;;;;5032763;28;20052;-76
2022/08/02 05:49:42;;;;;;;3.95;2.20;;;26.40;73.50;;;;;;5032418;28;20049;-75
2022/08/02 05:53:09;;;;;;;4.90;2.42;;;25.80;74.60;;;;;;5032759;28;20044;-76
2022/08/02 05:56:37;;;;;;;5.70;2.22;;;25.70;75.70;;;;;;5031915;28;20069;-75
2022/08/02 06:00:20;;;;;;;7.38;2.83;;;25.80;76.80;;;;;;5032461;28;20040;-75
2022/08/02 06:03:44;;;;;;;6.55;2.00;;;27.20;75.60;;;;;;5031684;28;20483;-75
2022/08/02 06:06:54;;;;;;;6.88;2.20;;;27.80;73.30;;;;;;5030576;28;20048;-75
2022/08/02 06:10:00;;;;;;;4.85;2.10;;;27.80;73.00;;;;;;5041335;28;20072;-76
2022/08/02 06:13:24;;;;;;;4.65;2.35;;;28.00;72.10;;;;;;5047199;28;20040;-76
2022/08/02 06:16:28;;;;;;;12.93;2.60;;;28.00;72.00;;;;;;5050329;28;20032;-76
2022/08/02 06:19:35;;;;;;;6.55;2.28;;;28.30;71.80;;;;;;5047546;28;20040;-76
2022/08/02 06:23:01;;;;;;;5.03;2.30;;;28.90;70.70;;;;;;5049487;28;20040;-76
2022/08/02 06:26:07;;;;;;;4.20;2.20;;;29.50;69.50;;;;;;5050274;28;20060;-76
2022/08/02 06:29:12;;;;;;;6.13;2.05;;;30.40;67.40;;;;;;5049886;28;20044;-76
2022/08/02 06:32:18;;;;;;;4.32;1.70;;;30.80;66.30;;;;;;5028857;28;20052;-77
2022/08/02 06:35:29;;;;;;;4.90;2.03;;;31.30;66.20;;;;;;5047107;28;20044;-76
2022/08/02 06:39:07;;;;;;;5.47;2.00;;;31.30;65.80;;;;;;5045440;28;20064;-76
2022/08/02 06:42:14;;;;;;;2.42;1.90;;;31.40;66.20;;;;;;5037369;28;20036;-76
2022/08/02 06:45:41;;;;;;;3.45;1.90;;;31.40;65.90;;;;;;5037875;28;20055;-77
2022/08/02 06:49:04;;;;;;;6.53;1.80;;;31.80;65.20;;;;;;5044980;28;20044;-76
2022/08/02 06:52:08;;;;;;;5.13;1.90;;;33.00;63.30;;;;;;5049900;28;20055;-77
2022/08/02 06:55:31;;;;;;;6.80;1.67;;;33.80;62.50;;;;;;5049492;28;20036;-78
2022/08/02 06:58:35;;;;;;;5.18;1.80;;;34.60;61.80;;;;;;5049713;28;20047;-77
2022/08/02 07:01:39;;;;;;;6.90;1.52;;;35.10;60.50;;;;;;5050000;28;20060;-77
2022/08/02 07:05:01;;;;;;;3.45;1.30;;;35.30;59.80;;;;;;5046970;28;20117;-77
2022/08/02 07:08:25;;;;;;;4.95;1.58;;;35.70;59.60;;;;;;5037858;28;20044;-78
2022/08/02 07:11:29;;;;;;;4.80;1.88;;;36.10;60.00;;;;;;5047603;28;20059;-78
2022/08/02 07:14:32;;;;;;;3.05;1.67;;;36.30;59.40;;;;;;5049512;28;20395;-78
2022/08/02 07:17:36;;;;;;;3.10;1.55;;;37.10;58.80;;;;;;5050575;28;20040;-77
2022/08/02 07:20:41;;;;;;;5.75;1.90;;;37.70;58.10;;;;;;5050935;28;20048;-75
2022/08/02 07:23:45;;;;;;;3.05;1.60;;;37.90;57.30;;;;;;5049978;28;20056;-76
2022/08/02 07:27:08;;;;;;;4.82;1.52;;;38.20;56.80;;;;;;5049641;28;20048;-75
2022/08/02 07:30:12;;;;;;;1.52;1.17;;;38.60;56.10;;;;;;5030362;28;20048;-76
2022/08/02 07:33:35;;;;;;;2.40;1.50;;;39.00;55.20;;;;;;5030963;28;20058;-76
2022/08/02 07:36:39;;;;;;;3.92;1.38;;;39.90;54.60;;;;;;5047494;28;20036;-74
2022/08/02 07:39:43;;;;;;;4.35;1.20;;;40.50;53.50;;;;;;5050545;28;20121;-75
2022/08/02 07:42:52;;;;;;;5.72;1.40;;;41.00;53.20;;;;;;5050126;28;20052;-77
2022/08/02 07:45:56;;;;;;;4.87;1.20;;;41.90;52.70;;;;;;5049202;28;20040;-75
2022/08/02 07:49:38;;;;;;;3.42;1.30;;;42.70;51.90;;;;;;5048393;28;20397;-77
2022/08/02 07:53:01;;;;;;;2.58;1.23;;;43.60;51.60;;;;;;5050305;28;20399;-77
2022/08/02 07:56:24;;;;;;;4.40;1.35;;;40.40;51.40;;;;;;5033493;28;20048;-75
2022/08/02 07:59:29;;;;;;;4.30;1.35;;;38.00;54.40;;;;;;5049520;28;20498;-77
2022/08/02 08:02:33;;;;;;;4.60;1.60;;;37.40;55.70;;;;;;5053289;28;20044;-77
2022/08/02 08:05:38;;;;;;;2.55;1.35;;;37.40;56.10;;;;;;5053325;28;20048;-78
2022/08/02 08:08:42;;;;;;;8.18;1.83;;;37.00;56.10;;;;;;5052631;28;20395;-77
2022/08/02 08:15:27;;;;;;;2.40;1.58;;;36.90;57.00;;;;;;5047393;28;20035;-77
2022/08/02 08:18:31;;;;;;;3.40;1.50;;;36.30;57.60;;;;;;5052730;28;20047;-77
2022/08/02 08:21:35;;;;;;;4.53;1.70;;;35.70;58.60;;;;;;5044517;28;20479;-77
2022/08/02 08:24:58;;;;;;;2.53;1.90;;;35.60;59.20;;;;;;5053651;28;20056;-73
2022/08/02 08:28:02;;;;;;;7.90;2.03;;;36.10;59.20;;;;;;5052810;28;20032;-76
2022/08/02 08:31:06;;;;;;;5.22;1.60;;;36.80;58.90;;;;;;5034133;28;20399;-77
2022/08/02 08:34:10;;;;;;;2.35;1.70;;;37.00;59.10;;;;;;5032417;28;20117;-77
2022/08/02 08:37:36;;;;;;;4.10;1.40;;;36.90;59.60;;;;;;5044884;28;20035;-76
2022/08/02 08:40:41;;;;;;;5.28;1.98;;;36.10;61.20;;;;;;5052998;28;20663;-77
2022/08/02 08:43:46;;;;;;;4.60;2.00;;;35.20;63.40;;;;;;5052338;28;20048;-77
2022/08/02 08:46:50;;;;;;;8.45;2.22;;;34.50;65.70;;;;;;5050361;28;20048;-78
2022/08/02 08:50:00;;;;;;;8.25;2.20;;;33.90;67.90;;;;;;5046244;28;20044;-76
2022/08/02 08:53:07;;;;;;;11.95;2.70;;;33.50;70.40;;;;;;5043114;28;20044;-77
2022/08/02 08:56:35;;;;;;;10.82;2.70;;;33.00;73.80;;;;;;5048632;28;20048;-72
2022/08/02 08:59:38;;;;;;;11.90;3.15;;;33.20;74.70;;;;;;5052534;28;20040;-72
2022/08/02 09:02:43;;;;;;;10.25;2.60;;;33.10;75.00;;;;;;5051680;28;20040;-72
2022/08/02 09:06:06;;;;;;;18.77;2.90;;;33.10;75.30;;;;;;5040215;28;20048;-72
2022/08/02 09:09:09;;;;;;;8.70;2.47;;;33.20;75.40;;;;;;5046096;28;20044;-72
2022/08/02 09:12:15;;;;;;;16.52;2.90;;;33.30;75.30;;;;;;5052894;28;20044;-72
2022/08/02 09:15:40;;;;;;;12.02;2.50;;;33.30;75.20;;;;;;5031653;28;20056;-72
2022/08/02 09:18:45;;;;;;;8.48;2.72;;;33.80;74.70;;;;;;5035618;28;20040;-71
2022/08/02 09:21:51;;;;;;;7.38;2.42;;;34.10;73.80;;;;;;5050996;28;20048;-72
2022/08/02 09:24:54;;;;;;;10.18;2.63;;;34.40;73.30;;;;;;5031364;28;20040;-72
2022/08/02 09:28:17;;;;;;;10.63;2.60;;;34.60;72.40;;;;;;5031326;28;20499;-72
2022/08/02 09:31:23;;;;;;;13.32;2.95;;;34.50;72.50;;;;;;5047697;28;20051;-71
2022/08/02 09:34:52;;;;;;;12.13;2.80;;;32.40;76.10;;;;;;5049809;28;20048;-72
2022/08/02 09:38:14;;;;;;;9.02;2.92;;;31.70;79.60;;;;;;5036232;28;20043;-71
2022/08/02 09:41:21;;;;;;;8.55;3.10;;;31.50;79.90;;;;;;5046623;28;20040;-71
2022/08/02 09:44:30;;;;;;;9.27;2.60;;;31.80;78.30;;;;;;5050280;28;20052;-71
2022/08/02 09:47:34;;;;;;;10.77;2.70;;;31.90;77.90;;;;;;5050745;28;20049;-71
2022/08/02 09:54:28;;;;;;;14.05;3.33;;;31.90;77.20;;;;;;5050835;28;20040;-71
2022/08/02 09:57:36;;;;;;;12.88;2.83;;;31.70;75.30;;;;;;5043946;28;20506;-71
2022/08/02 10:00:54;;;;;;;5.30;2.90;;;31.00;76.80;;;;;;5051173;28;20060;-71
2022/08/02 10:04:04;;;;;;;5.30;2.45;;;30.80;76.60;;;;;;5049993;28;20048;-70
2022/08/02 10:07:08;;;;;;;12.20;3.70;;;30.80;75.90;;;;;;5031842;28;20056;-71
2022/08/02 10:10:31;;;;;;;10.40;2.80;;;30.60;76.40;;;;;;5030406;28;20235;-71
2022/08/02 10:13:36;;;;;;;7.45;2.40;;;30.60;77.70;;;;;;5030333;28;20600;-71
2022/08/02 10:20:04;;;;;;;7.38;2.63;;;30.70;80.30;;;;;;5041712;28;20036;-71
2022/08/02 10:23:12;;;;;;;7.20;2.90;;;30.60;80.90;;;;;;5049782;28;20498;-71
2022/08/02 10:26:18;;;;;;;4.60;2.63;;;30.30;82.20;;;;;;5050314;28;20044;-71
2022/08/02 10:29:29;;;;;;;8.98;3.08;;;30.30;82.80;;;;;;5041214;28;20044;-71
2022/08/02 10:32:39;;;;;;;11.80;2.88;;;30.20;83.80;;;;;;5031606;28;20052;-71
2022/08/02 10:36:03;;;;;;;11.65;2.60;;;30.50;84.20;;;;;;5049598;28;20487;-71
2022/08/02 10:39:09;;;;;;;9.65;3.00;;;31.20;82.70;;;;;;5047992;28;20032;-71
2022/08/02 10:42:47;;;;;;;8.30;3.28;;;32.10;79.80;;;;;;5050168;28;20048;-71
2022/08/02 10:45:51;;;;;;;8.90;2.70;;;31.80;78.80;;;;;;5050734;28;20052;-71
2022/08/02 10:49:22;;;;;;;7.07;2.17;;;32.60;77.40;;;;;;5050614;28;20935;-71
2022/08/02 10:52:30;;;;;;;6.82;2.30;;;34.30;73.20;;;;;;5031367;28;20056;-71
2022/08/02 10:55:46;;;;;;;6.25;2.42;;;36.00;70.20;;;;;;5050505;28;20040;-71
2022/08/02 10:59:45;;;;;;;8.95;2.05;;;36.60;68.30;;;;;;5049448;28;20040;-71
2022/08/02 11:02:50;;;;;;;5.30;2.00;;;38.30;64.70;;;;;;4990476;28;20142;-72
2022/08/02 11:06:10;;;;;;;9.75;1.98;;;39.50;63.50;;;;;;5038216;28;20052;-69
2022/08/02 11:09:31;;;;;;;6.50;1.90;;;41.40;62.60;;;;;;5049600;28;20044;-69
2022/08/02 11:13:07;;;;;;;6.38;2.00;;;41.90;61.50;;;;;;5050230;28;20048;-72
2022/08/02 11:16:30;;;;;;;3.85;1.50;;;41.90;60.80;;;;;;5050336;28;20051;-72
2022/08/02 11:20:10;;;;;;;6.65;1.58;;;41.70;61.10;;;;;;5049640;28;20040;-69
2022/08/02 11:23:36;;;;;;;4.38;1.50;;;43.10;59.70;;;;;;5049829;28;20403;-72
2022/08/02 11:26:41;;;;;;;6.80;1.70;;;43.20;59.00;;;;;;5049291;28;20048;-72
2022/08/02 11:29:47;;;;;;;4.75;1.50;;;43.20;58.90;;;;;;5046117;28;20076;-70
2022/08/02 11:32:56;;;;;;;5.03;1.35;;;42.80;58.70;;;;;;5049100;28;20048;-69
2022/08/02 11:36:03;;;;;;;5.75;2.08;;;43.70;58.40;;;;;;5036890;28;20039;-70
2022/08/02 11:39:14;;;;;;;7.38;1.80;;;44.80;57.70;;;;;;5048699;28;20044;-69
2022/08/02 11:42:18;;;;;;;3.95;1.30;;;44.50;57.40;;;;;;5032835;28;20057;-69
2022/08/02 11:45:25;;;;;;;5.13;1.58;;;44.00;57.80;;;;;;5041980;28;20040;-71
2022/08/02 11:48:48;;;;;;;4.00;1.40;;;44.00;58.10;;;;;;5049329;28;20048;-71
2022/08/02 11:52:11;;;;;;;4.18;1.55;;;44.80;57.50;;;;;;5048996;28;20048;-69
2022/08/02 11:55:15;;;;;;;4.20;1.63;;;45.30;56.90;;;;;;5038418;28;20040;-69
2022/08/02 11:58:19;;;;;;;5.25;1.45;;;46.10;55.80;;;;;;5043730;28;20052;-71
2022/08/02 12:01:42;;;;;;;6.90;1.92;;;46.60;55.40;;;;;;5049283;28;20431;-71
2022/08/02 12:08:37;;;;;;;4.78;1.40;;;46.50;55.20;;;;;;5029697;28;20041;-70
2022/08/02 12:12:01;;;;;;;9.52;1.38;;;47.10;54.50;;;;;;5060862;28;20048;-72
2022/08/02 12:15:06;;;;;;;3.65;1.33;;;47.30;54.10;;;;;;5056138;28;20044;-70
2022/08/02 12:22:18;;;;;;;4.90;1.50;;;48.00;52.60;;;;;;5040070;28;20036;-72
2022/08/02 12:25:22;;;;;;;6.07;1.20;;;48.20;52.20;;;;;;5039606;28;20052;-70
2022/08/02 12:28:26;;;;;;;3.50;1.35;;;48.10;52.10;;;;;;5046719;28;20048;-70
2022/08/02 12:31:39;;;;;;;4.25;1.23;;;48.20;52.00;;;;;;5042524;28;20044;-71
2022/08/02 12:35:06;;;;;;;6.57;1.63;;;46.10;53.80;;;;;;5046566;28;20036;-71
2022/08/02 12:38:11;;;;;;;3.10;1.45;;;46.30;53.40;;;;;;5040868;28;20052;-71
2022/08/02 12:41:34;;;;;;;3.38;1.30;;;46.50;52.80;;;;;;5052628;28;20541;-69
2022/08/02 12:44:50;;;;;;;1.77;1.02;;;46.10;51.70;;;;;;5041612;28;20040;-69
2022/08/02 12:48:14;;;;;;;2.67;1.45;;;45.00;51.50;;;;;;5052434;28;20047;-72
2022/08/02 12:51:23;;;;;;;2.65;1.33;;;44.70;53.70;;;;;;5052504;28;20659;-71
2022/08/02 12:54:31;;;;;;;6.90;1.55;;;45.20;53.50;;;;;;5052226;28;20047;-71
2022/08/02 12:57:54;;;;;;;3.72;1.15;;;45.40;52.90;;;;;;5052737;28;20502;-71
2022/08/02 13:00:59;;;;;;;3.65;1.55;;;45.40;51.80;;;;;;5052287;28;20066;-70
2022/08/02 13:04:04;;;;;;;4.82;1.55;;;44.80;52.60;;;;;;5049106;28;20044;-70
2022/08/02 13:07:08;;;;;;;5.50;1.45;;;41.40;53.70;;;;;;5049579;28;20036;-71
2022/08/02 13:10:32;;;;;;;2.70;1.48;;;41.30;54.40;;;;;;5045555;28;20403;-72
2022/08/02 13:13:35;;;;;;;8.80;1.52;;;41.40;54.70;;;;;;5049238;28;20290;-70
2022/08/02 13:16:59;;;;;;;3.03;1.40;;;42.20;55.10;;;;;;5047219;28;20044;-70
2022/08/02 13:20:21;;;;;;;4.20;1.30;;;42.40;54.30;;;;;;5032333;28;20044;-70
2022/08/02 13:23:25;;;;;;;6.05;1.98;;;43.00;53.50;;;;;;5019746;28;20037;-71
2022/08/02 13:26:29;;;;;;;1.70;1.30;;;42.20;53.90;;;;;;5032544;28;20122;-71
2022/08/02 13:32:55;;;;;;;3.53;1.85;;;41.70;55.00;;;;;;5048879;28;20048;-70
2022/08/02 13:35:59;;;;;;;5.10;1.67;;;41.60;54.60;;;;;;5046064;28;20120;-70
2022/08/02 13:39:04;;;;;;;4.28;2.20;;;41.80;54.30;;;;;;5049352;28;20032;-71
2022/08/02 13:42:08;;;;;;;5.85;1.70;;;41.90;54.00;;;;;;5050604;28;20044;-71
2022/08/02 13:45:13;;;;;;;4.32;1.45;;;42.00;54.30;;;;;;5051420;28;20056;-71
2022/08/02 13:48:17;;;;;;;8.40;1.73;;;42.00;54.30;;;;;;5051055;28;20055;-71
2022/08/02 13:51:21;;;;;;;8.18;1.80;;;41.90;54.20;;;;;;5038118;28;20060;-71
2022/08/02 13:54:44;;;;;;;3.45;1.58;;;41.70;53.90;;;;;;5031308;28;20041;-71
2022/08/02 13:57:47;;;;;;;2.95;1.35;;;41.80;53.60;;;;;;5031401;28;20036;-70
2022/08/02 14:08:16;;;;;;;3.25;1.67;;;41.00;54.70;;;;;;5031513;28;20052;-71
2022/08/02 14:11:21;;;;;;;3.40;1.52;;;40.30;55.60;;;;;;5031172;28;20040;-71
2022/08/02 14:14:26;;;;;;;6.00;1.52;;;40.20;55.30;;;;;;5034345;28;20052;-72
2022/08/02 14:17:30;;;;;;;4.18;1.73;;;40.60;55.50;;;;;;5050693;28;20368;-71
2022/08/02 14:20:34;;;;;;;5.18;1.52;;;40.80;54.80;;;;;;5051717;28;20040;-72
2022/08/02 14:23:57;;;;;;;4.60;1.40;;;41.00;54.70;;;;;;5050887;28;20052;-71
2022/08/02 14:27:03;;;;;;;5.90;1.50;;;40.60;54.40;;;;;;5051493;28;20039;-70
2022/08/02 14:30:08;;;;;;;4.88;2.03;;;39.90;55.90;;;;;;5050987;28;20056;-71
2022/08/02 14:33:12;;;;;;;5.28;1.60;;;39.40;55.70;;;;;;5050603;28;20044;-70
2022/08/02 14:36:16;;;;;;;6.45;1.60;;;39.30;56.30;;;;;;5050586;28;20039;-70
2022/08/02 14:39:39;;;;;;;3.63;1.30;;;39.60;56.20;;;;;;5051261;28;20040;-70
2022/08/02 14:42:44;;;;;;;2.72;1.40;;;39.50;55.50;;;;;;5042995;28;20040;-71
2022/08/02 14:45:48;;;;;;;3.55;1.63;;;39.20;56.10;;;;;;5046663;28;20043;-72
2022/08/02 14:48:52;;;;;;;4.13;1.70;;;39.20;55.80;;;;;;5050216;28;20121;-70
2022/08/02 14:51:57;;;;;;;7.75;1.60;;;39.20;55.60;;;;;;5054619;28;20048;-76
2022/08/02 14:55:20;;;;;;;3.90;1.52;;;39.30;55.50;;;;;;5050963;28;20044;-74
2022/08/02 14:58:42;;;;;;;2.97;1.30;;;38.90;55.60;;;;;;5050285;28;20052;-75
2022/08/02 15:01:46;;;;;;;3.97;1.42;;;38.70;56.20;;;;;;5050224;28;20067;-75
2022/08/02 15:04:50;;;;;;;3.30;1.42;;;38.60;56.80;;;;;;5050442;28;20055;-73
2022/08/02 15:07:54;;;;;;;2.95;1.20;;;38.30;57.00;;;;;;5050131;28;20040;-74
2022/08/02 15:11:17;;;;;;;3.92;1.80;;;38.20;57.30;;;;;;5049988;28;20048;-71
2022/08/02 15:14:21;;;;;;;6.95;2.20;;;38.00;57.00;;;;;;5037719;28;20040;-70
2022/08/02 15:17:43;;;;;;;3.88;2.05;;;37.70;57.80;;;;;;5050530;28;20078;-70
2022/08/02 15:20:47;;;;;;;3.70;1.73;;;37.70;58.60;;;;;;5050273;28;20048;-74
2022/08/02 15:23:51;;;;;;;4.50;2.05;;;37.60;58.40;;;;;;5049650;28;20048;-74
2022/08/02 15:26:55;;;;;;;4.15;1.67;;;37.50;58.40;;;;;;5050366;28;20047;-73
2022/08/02 15:29:59;;;;;;;3.67;2.00;;;37.30;58.40;;;;;;5050500;28;20335;-74
2022/08/02 15:33:41;;;;;;;4.15;1.77;;;37.30;58.60;;;;;;5049591;28;20044;-74
2022/08/02 15:36:45;;;;;;;4.45;1.75;;;37.20;58.60;;;;;;5050222;28;20044;-74
2022/08/02 15:39:49;;;;;;;3.45;1.60;;;37.20;58.50;;;;;;5049800;28;20416;-75
2022/08/02 15:46:53;;;;;;;4.30;2.08;;;37.20;58.70;;;;;;5050374;28;20056;-75
2022/08/02 15:49:58;;;;;;;3.20;1.65;;;37.30;58.00;;;;;;5049831;28;20040;-75
2022/08/02 15:53:20;;;;;;;3.28;2.05;;;37.50;58.00;;;;;;5049807;28;20064;-74
2022/08/02 15:56:43;;;;;;;4.03;2.03;;;37.60;57.80;;;;;;5049997;28;20051;-76
2022/08/02 15:59:47;;;;;;;3.28;1.50;;;37.70;57.80;;;;;;5049788;28;20040;-75
2022/08/02 16:06:33;;;;;;;3.30;1.95;;;37.50;57.90;;;;;;5049567;28;20491;-75
2022/08/02 16:09:37;;;;;;;6.05;1.85;;;37.40;58.00;;;;;;5049878;28;20318;-75
2022/08/02 16:16:25;;;;;;;4.55;1.70;;;37.20;58.30;;;;;;5053682;28;20051;-75
2022/08/02 16:19:29;;;;;;;4.05;1.83;;;37.00;58.40;;;;;;5053529;28;20070;-76
2022/08/02 16:22:34;;;;;;;7.40;1.70;;;37.00;58.40;;;;;;5053632;28;20048;-73
2022/08/02 16:25:39;;;;;;;7.32;1.55;;;36.90;58.70;;;;;;5053556;28;20048;-74
2022/08/02 16:29:02;;;;;;;5.63;1.75;;;36.80;59.00;;;;;;5053910;28;20646;-74
2022/08/02 16:32:06;;;;;;;4.53;1.70;;;36.50;59.30;;;;;;5053634;28;20043;-75
2022/08/02 16:35:14;;;;;;;7.75;1.83;;;36.20;59.60;;;;;;5052953;28;20040;-73
2022/08/02 16:38:18;;;;;;;2.80;1.80;;;36.00;60.00;;;;;;5039179;28;20040;-72
2022/08/02 16:41:22;;;;;;;2.88;1.60;;;35.70;60.10;;;;;;5053188;28;20051;-75
2022/08/02 16:44:45;;;;;;;4.38;1.50;;;35.50;60.60;;;;;;5052645;28;20384;-70
2022/08/02 16:47:49;;;;;;;3.13;1.80;;;35.40;60.60;;;;;;5052758;28;20048;-71
2022/08/02 16:50:54;;;;;;;3.75;1.70;;;35.40;60.70;;;;;;5052835;28;20052;-71
2022/08/02 16:53:57;;;;;;;3.70;1.58;;;35.40;61.10;;;;;;5052529;28;20036;-70
2022/08/02 16:57:03;;;;;;;3.97;2.20;;;35.30;61.60;;;;;;5053507;28;20609;-70
2022/08/02 17:00:09;;;;;;;4.80;2.40;;;35.40;61.50;;;;;;5053081;28;20040;-70
2022/08/02 17:03:13;;;;;;;3.38;1.65;;;35.30;61.70;;;;;;5052613;28;20055;-70
2022/08/02 17:06:16;;;;;;;4.28;1.80;;;35.20;61.80;;;;;;5052715;28;20514;-70
2022/08/02 17:09:39;;;;;;;4.82;1.50;;;35.20;62.60;;;;;;5052631;28;20051;-70
2022/08/02 17:12:43;;;;;;;4.20;1.90;;;35.10;62.10;;;;;;5052641;28;20050;-70
2022/08/02 17:16:06;;;;;;;7.68;1.90;;;35.00;61.80;;;;;;5052689;28;20044;-71
2022/08/02 17:22:52;;;;;;;2.85;1.52;;;35.00;62.40;;;;;;5051499;28;20407;-70
2022/08/02 17:25:55;;;;;;;4.63;2.28;;;34.90;62.30;;;;;;5052113;28;20048;-70
2022/08/02 17:28:59;;;;;;;5.72;1.92;;;34.70;63.10;;;;;;5052332;28;20052;-71
2022/08/02 17:32:03;;;;;;;4.22;1.83;;;34.60;62.90;;;;;;5051671;28;20561;-71
2022/08/02 17:35:08;;;;;;;5.13;1.65;;;34.50;63.70;;;;;;5051507;28;20047;-70
2022/08/02 17:38:32;;;;;;;4.45;1.98;;;34.40;64.50;;;;;;5051655;28;20519;-70
2022/08/02 17:41:37;;;;;;;5.50;1.65;;;34.20;64.80;;;;;;5051900;28;20068;-70
2022/08/02 17:44:41;;;;;;;4.72;1.73;;;34.00;64.60;;;;;;5050982;28;20041;-70
2022/08/02 17:47:46;;;;;;;8.63;2.00;;;33.90;65.50;;;;;;5051605;28;20383;-70
2022/08/02 17:51:08;;;;;;;5.72;1.83;;;33.60;65.70;;;;;;5051698;28;20040;-71
2022/08/02 17:54:13;;;;;;;5.80;2.17;;;33.30;66.50;;;;;;5051337;28;20052;-70